Time;durP1;ratioP1;P1;durP2;ratioP2;P2;SDS_P1;SDS_P2;PMS_P1;PMS_P2;Temp;Humidity;BMP_temperature;BMP_pressure;BME280_temperature;BME280_humidity;BME280_pressure;Samples;Min_cycle;Max_cycle;Signal;HPM_P1;HPM_P2
2021/12/27 00:02:25;;;;;;;19.75;8.60;;;-0.70;99.90;;;;;;5057598;28;20404;-48
2021/12/27 00:04:51;;;;;;;17.60;8.40;;;-0.80;99.90;;;;;;5075733;28;20078;-46
2021/12/27 00:07:17;;;;;;;16.05;8.48;;;-0.80;99.90;;;;;;5075719;28;20028;-48
2021/12/27 00:09:43;;;;;;;18.42;9.00;;;-0.80;99.90;;;;;;5075960;28;20024;-46
2021/12/27 00:12:09;;;;;;;19.88;8.73;;;-0.70;99.90;;;;;;5075128;28;20032;-50
2021/12/27 00:14:34;;;;;;;18.88;9.20;;;-0.70;99.90;;;;;;5075311;28;20032;-48
2021/12/27 00:17:00;;;;;;;17.45;9.60;;;-0.70;99.90;;;;;;5075113;28;20366;-47
2021/12/27 00:19:25;;;;;;;21.13;9.18;;;-0.70;99.90;;;;;;5075170;28;20050;-48
2021/12/27 00:21:52;;;;;;;16.15;9.02;;;-0.80;99.90;;;;;;5075167;28;20039;-49
2021/12/27 00:24:17;;;;;;;17.90;9.00;;;-0.70;99.90;;;;;;5057990;28;20385;-48
2021/12/27 00:26:44;;;;;;;19.10;8.63;;;-0.70;99.90;;;;;;5075454;28;20021;-49
2021/12/27 00:29:10;;;;;;;17.80;8.95;;;-0.60;99.90;;;;;;5076988;28;20120;-49
2021/12/27 00:31:36;;;;;;;16.98;8.35;;;-0.60;99.90;;;;;;5076682;28;20032;-48
2021/12/27 00:34:02;;;;;;;19.20;8.93;;;-0.60;99.90;;;;;;5075735;28;20104;-45
2021/12/27 00:36:27;;;;;;;17.30;9.00;;;-0.60;99.90;;;;;;5075561;28;20067;-45
2021/12/27 00:38:53;;;;;;;18.17;8.43;;;-0.60;99.90;;;;;;5075549;28;20029;-46
2021/12/27 00:41:19;;;;;;;17.92;8.20;;;-0.60;99.90;;;;;;5077237;28;20098;-48
2021/12/27 00:43:44;;;;;;;17.10;8.88;;;-0.50;99.90;;;;;;5077545;28;20115;-52
2021/12/27 00:46:10;;;;;;;19.52;8.10;;;-0.50;99.90;;;;;;5076733;28;20076;-47
2021/12/27 00:48:35;;;;;;;20.15;8.15;;;-0.50;99.90;;;;;;5076850;28;20110;-46
2021/12/27 00:51:02;;;;;;;19.67;8.68;;;-0.60;99.90;;;;;;5076149;28;20021;-47
2021/12/27 00:53:28;;;;;;;18.90;8.32;;;-0.50;99.90;;;;;;5076941;28;20025;-46
2021/12/27 00:55:53;;;;;;;21.35;9.07;;;-0.50;99.90;;;;;;5076332;28;20465;-45
2021/12/27 00:58:19;;;;;;;15.07;7.60;;;-0.50;99.90;;;;;;5057658;28;20024;-47
2021/12/27 01:00:45;;;;;;;18.75;9.05;;;-0.60;99.90;;;;;;5077224;28;20488;-46
2021/12/27 01:03:10;;;;;;;18.30;8.50;;;-0.60;99.90;;;;;;5077166;28;20386;-47
2021/12/27 01:05:36;;;;;;;15.40;8.68;;;-0.60;99.90;;;;;;5058201;28;20028;-49
2021/12/27 01:08:05;;;;;;;21.83;9.43;;;-0.60;99.90;;;;;;5076326;28;20024;-46
2021/12/27 01:10:55;;;;;;;17.30;8.95;;;-0.60;99.90;;;;;;5075174;28;20529;-47
2021/12/27 01:13:21;;;;;;;15.98;8.25;;;-0.60;99.90;;;;;;5075588;28;20078;-46
2021/12/27 01:16:02;;;;;;;21.20;9.25;;;-0.60;99.90;;;;;;5076158;28;20393;-50
2021/12/27 01:18:27;;;;;;;14.80;8.00;;;-0.60;99.90;;;;;;5076243;28;20051;-49
2021/12/27 01:20:53;;;;;;;15.57;8.57;;;-0.60;99.90;;;;;;5057675;28;20016;-48
2021/12/27 01:23:18;;;;;;;15.88;7.55;;;-0.70;99.90;;;;;;5074984;28;20440;-49
2021/12/27 01:25:44;;;;;;;20.23;9.63;;;-0.60;99.90;;;;;;5075283;28;20445;-50
2021/12/27 01:28:10;;;;;;;17.60;8.20;;;-0.70;99.90;;;;;;5075551;28;20032;-49
2021/12/27 01:30:37;;;;;;;23.33;8.30;;;-0.60;99.90;;;;;;5074390;28;20024;-47
2021/12/27 01:33:04;;;;;;;16.13;8.63;;;-0.70;99.90;;;;;;5073629;28;20035;-48
2021/12/27 01:35:29;;;;;;;17.25;8.98;;;-0.70;99.90;;;;;;5073944;28;20151;-49
2021/12/27 01:37:56;;;;;;;14.63;7.32;;;-0.60;99.90;;;;;;5073719;28;20075;-49
2021/12/27 01:40:26;;;;;;;17.75;8.55;;;-0.60;99.90;;;;;;5073289;28;20031;-49
2021/12/27 01:43:10;;;;;;;17.75;8.38;;;-0.60;99.90;;;;;;5073608;28;20409;-51
2021/12/27 01:45:50;;;;;;;14.98;8.23;;;-0.60;99.90;;;;;;5073238;28;20106;-48
2021/12/27 01:48:20;;;;;;;20.63;8.00;;;-0.70;99.90;;;;;;5073412;28;20434;-48
2021/12/27 01:51:06;;;;;;;13.55;7.28;;;-0.60;99.90;;;;;;5055125;28;20063;-50
2021/12/27 01:53:33;;;;;;;17.95;9.05;;;-0.60;99.90;;;;;;5073388;28;20074;-47
2021/12/27 01:56:00;;;;;;;16.35;7.93;;;-0.70;99.90;;;;;;5073263;28;20024;-51
2021/12/27 01:58:27;;;;;;;17.15;7.57;;;-0.80;99.90;;;;;;5073172;28;20097;-50
2021/12/27 02:00:56;;;;;;;21.27;9.50;;;-0.80;99.90;;;;;;5055152;28;20067;-47
2021/12/27 02:03:24;;;;;;;16.88;8.63;;;-0.80;99.90;;;;;;5073845;28;20024;-49
2021/12/27 02:05:51;;;;;;;19.40;9.00;;;-0.80;99.90;;;;;;5055690;28;20028;-45
2021/12/27 02:08:16;;;;;;;18.27;8.20;;;-0.80;99.90;;;;;;5055370;28;20081;-48
2021/12/27 02:10:42;;;;;;;21.55;7.93;;;-0.80;99.90;;;;;;5072911;28;20033;-49
2021/12/27 02:13:08;;;;;;;16.52;7.70;;;-0.70;99.90;;;;;;5072645;28;20108;-47
2021/12/27 02:15:34;;;;;;;20.42;8.63;;;-0.70;99.90;;;;;;5073164;28;20025;-48
2021/12/27 02:18:00;;;;;;;13.60;7.05;;;-0.70;99.90;;;;;;5073119;28;20031;-50
2021/12/27 02:20:31;;;;;;;20.27;8.77;;;-0.70;99.90;;;;;;5072655;28;20089;-53
2021/12/27 02:23:01;;;;;;;17.20;8.10;;;-0.70;99.90;;;;;;5072534;28;20452;-50
2021/12/27 02:25:29;;;;;;;17.95;9.00;;;-0.70;99.90;;;;;;5073119;28;20104;-49
2021/12/27 02:27:55;;;;;;;18.30;7.95;;;-0.70;99.90;;;;;;5073186;28;20021;-47
2021/12/27 02:30:24;;;;;;;15.60;7.35;;;-0.60;99.90;;;;;;5072716;28;20021;-48
2021/12/27 02:32:53;;;;;;;17.63;8.05;;;-0.60;99.90;;;;;;5072356;28;20078;-49
2021/12/27 02:35:22;;;;;;;18.35;8.50;;;-0.60;99.90;;;;;;5054046;28;20492;-45
2021/12/27 02:37:48;;;;;;;20.73;8.13;;;-0.60;99.90;;;;;;5072129;28;20534;-47
2021/12/27 02:40:14;;;;;;;18.95;9.10;;;-0.60;99.90;;;;;;5072498;28;20029;-47
2021/12/27 02:42:57;;;;;;;16.52;8.55;;;-0.60;99.90;;;;;;5072450;28;20093;-45
2021/12/27 02:45:24;;;;;;;20.98;8.35;;;-0.60;99.90;;;;;;5072079;28;20062;-47
2021/12/27 02:47:50;;;;;;;17.10;8.45;;;-0.70;99.90;;;;;;5054044;28;20025;-47
2021/12/27 02:50:16;;;;;;;16.75;7.25;;;-0.70;99.90;;;;;;5071884;28;20097;-47
2021/12/27 02:52:42;;;;;;;19.35;7.88;;;-0.60;99.90;;;;;;5072187;28;20436;-50
2021/12/27 02:55:07;;;;;;;12.80;7.20;;;-0.60;99.90;;;;;;5071829;28;20036;-48
2021/12/27 02:57:33;;;;;;;17.63;7.63;;;-0.60;99.90;;;;;;5053944;28;20111;-48
2021/12/27 03:00:00;;;;;;;16.05;7.65;;;-0.60;99.90;;;;;;5072188;28;20029;-47
2021/12/27 03:02:26;;;;;;;17.10;8.43;;;-0.60;99.90;;;;;;5072142;28;20036;-48
2021/12/27 03:04:51;;;;;;;18.35;8.45;;;-0.50;99.90;;;;;;5072170;28;20028;-48
2021/12/27 03:07:17;;;;;;;19.48;8.10;;;-0.50;99.90;;;;;;5072073;28;20166;-47
2021/12/27 03:09:43;;;;;;;17.52;8.20;;;-0.50;99.90;;;;;;5071736;28;20063;-48
2021/12/27 03:12:12;;;;;;;17.13;8.85;;;-0.50;99.90;;;;;;5075174;28;20029;-47
2021/12/27 03:14:38;;;;;;;15.95;8.40;;;-0.50;99.90;;;;;;5075635;28;20103;-46
2021/12/27 03:17:04;;;;;;;19.70;8.80;;;-0.50;99.90;;;;;;5075623;28;20411;-47
2021/12/27 03:19:30;;;;;;;17.38;8.93;;;-0.50;99.90;;;;;;5075765;28;20052;-49
2021/12/27 03:21:56;;;;;;;15.70;8.50;;;-0.50;99.90;;;;;;5075471;28;20534;-47
2021/12/27 03:24:22;;;;;;;19.25;8.35;;;-0.50;99.90;;;;;;5075629;28;20104;-49
2021/12/27 03:26:48;;;;;;;18.42;8.80;;;-0.50;99.90;;;;;;5075803;28;20367;-48
2021/12/27 03:29:14;;;;;;;21.13;9.68;;;-0.50;99.90;;;;;;5057606;28;20115;-47
2021/12/27 03:31:40;;;;;;;23.77;8.80;;;-0.60;99.90;;;;;;5075542;28;20044;-47
2021/12/27 03:34:06;;;;;;;19.45;9.15;;;-0.40;99.90;;;;;;5075584;28;20024;-48
2021/12/27 03:36:38;;;;;;;19.50;8.50;;;-0.50;99.90;;;;;;5075339;28;20024;-46
2021/12/27 03:39:07;;;;;;;20.23;9.55;;;-0.50;99.90;;;;;;5075610;28;20029;-48
2021/12/27 03:41:32;;;;;;;19.33;8.63;;;-0.50;99.90;;;;;;5074954;28;20041;-47
2021/12/27 03:43:58;;;;;;;20.02;10.27;;;-0.50;99.90;;;;;;5075228;28;20489;-47
2021/12/27 03:46:23;;;;;;;22.38;10.18;;;-0.50;99.90;;;;;;5074693;28;20059;-47
2021/12/27 03:48:49;;;;;;;20.83;9.70;;;-0.60;99.90;;;;;;5075044;28;20166;-47
2021/12/27 03:51:15;;;;;;;20.08;9.73;;;-0.60;99.90;;;;;;5075088;28;20036;-47
2021/12/27 03:53:40;;;;;;;21.25;9.63;;;-0.60;99.90;;;;;;5075440;28;20074;-46
2021/12/27 03:56:08;;;;;;;24.27;10.10;;;-0.60;99.90;;;;;;5075277;28;20075;-49
2021/12/27 03:58:46;;;;;;;16.58;8.68;;;-0.60;99.90;;;;;;5075238;28;20032;-46
2021/12/27 04:01:15;;;;;;;20.77;10.15;;;-0.50;99.90;;;;;;5075549;28;20055;-48
2021/12/27 04:03:43;;;;;;;21.67;9.10;;;-0.50;99.90;;;;;;5075694;28;20111;-47
2021/12/27 04:06:09;;;;;;;23.08;9.93;;;-0.50;99.90;;;;;;5075369;28;20027;-47
2021/12/27 04:08:35;;;;;;;19.50;9.27;;;-0.50;99.90;;;;;;5075498;28;20450;-45
2021/12/27 04:11:01;;;;;;;21.45;10.32;;;-0.50;99.90;;;;;;5075454;28;20028;-48
2021/12/27 04:13:27;;;;;;;25.15;10.32;;;-0.50;99.90;;;;;;5075260;28;20036;-48
2021/12/27 04:15:53;;;;;;;23.08;10.38;;;-0.40;99.90;;;;;;5075467;28;20073;-47
2021/12/27 04:18:19;;;;;;;20.90;10.23;;;-0.50;99.90;;;;;;5075575;28;20423;-48
2021/12/27 04:20:45;;;;;;;16.20;9.38;;;-0.40;99.90;;;;;;5075400;28;20038;-46
2021/12/27 04:23:11;;;;;;;23.30;10.13;;;-0.50;99.90;;;;;;5074326;28;20081;-48
2021/12/27 04:25:36;;;;;;;18.67;10.10;;;-0.50;99.90;;;;;;5056938;28;20036;-49
2021/12/27 04:28:03;;;;;;;23.95;9.60;;;-0.50;99.90;;;;;;5075260;28;20437;-47
2021/12/27 04:30:28;;;;;;;22.30;10.75;;;-0.50;99.90;;;;;;5074712;28;20024;-48
2021/12/27 04:32:54;;;;;;;25.10;11.35;;;-0.50;99.90;;;;;;5074924;28;20104;-47
2021/12/27 04:35:21;;;;;;;20.85;10.40;;;-0.50;99.90;;;;;;5074956;28;20492;-46
2021/12/27 04:37:47;;;;;;;22.63;10.23;;;-0.50;99.90;;;;;;5074773;28;20039;-46
2021/12/27 04:40:15;;;;;;;24.85;11.32;;;-0.40;99.90;;;;;;5074419;28;20024;-47
2021/12/27 04:42:44;;;;;;;25.35;10.35;;;-0.50;99.90;;;;;;5074420;28;20460;-46
2021/12/27 04:45:12;;;;;;;20.50;10.00;;;-0.50;99.90;;;;;;5074281;28;20067;-47
2021/12/27 04:47:37;;;;;;;22.92;10.07;;;-0.50;99.90;;;;;;5074293;28;20104;-46
2021/12/27 04:50:03;;;;;;;20.38;10.60;;;-0.50;99.90;;;;;;5074108;28;20116;-45
2021/12/27 04:52:29;;;;;;;22.95;10.38;;;-0.50;99.90;;;;;;5074283;28;20026;-46
2021/12/27 04:54:55;;;;;;;23.73;11.90;;;-0.60;99.90;;;;;;5056203;28;20024;-49
2021/12/27 04:57:20;;;;;;;24.30;12.02;;;-0.70;99.90;;;;;;5056708;28;20385;-47
2021/12/27 04:59:46;;;;;;;22.55;10.63;;;-0.70;99.90;;;;;;5074286;28;20029;-47
2021/12/27 05:02:11;;;;;;;24.13;11.05;;;-0.70;99.90;;;;;;5073832;28;20028;-46
2021/12/27 05:04:37;;;;;;;21.88;10.88;;;-0.80;99.90;;;;;;5074574;28;20028;-47
2021/12/27 05:07:03;;;;;;;24.67;11.10;;;-0.80;99.90;;;;;;5073879;28;20393;-47
2021/12/27 05:09:29;;;;;;;22.70;10.40;;;-0.90;99.90;;;;;;5056050;28;20032;-47
2021/12/27 05:11:54;;;;;;;22.75;10.98;;;-0.90;99.90;;;;;;5074479;28;20020;-49
2021/12/27 05:14:19;;;;;;;27.50;11.23;;;-1.00;99.90;;;;;;5074093;28;20027;-51
2021/12/27 05:16:45;;;;;;;22.02;11.23;;;-1.00;99.90;;;;;;5073992;28;20397;-48
2021/12/27 05:19:11;;;;;;;23.92;11.95;;;-1.00;99.90;;;;;;5074044;28;20039;-46
2021/12/27 05:21:36;;;;;;;25.08;11.20;;;-1.00;99.90;;;;;;5073829;28;20035;-46
2021/12/27 05:24:02;;;;;;;24.30;11.40;;;-1.10;99.90;;;;;;5073736;28;20028;-49
2021/12/27 05:26:28;;;;;;;22.77;11.68;;;-1.10;99.90;;;;;;5073171;28;20071;-47
2021/12/27 05:28:53;;;;;;;26.52;12.30;;;-1.10;99.90;;;;;;5073762;28;20032;-50
2021/12/27 05:31:19;;;;;;;25.60;12.15;;;-1.10;99.90;;;;;;5073508;28;20044;-47
2021/12/27 05:33:44;;;;;;;26.55;11.98;;;-1.10;99.90;;;;;;5072751;28;20175;-48
2021/12/27 05:36:12;;;;;;;25.17;11.68;;;-1.10;99.90;;;;;;5073206;28;20024;-47
2021/12/27 05:38:38;;;;;;;28.65;12.02;;;-1.20;99.90;;;;;;5072959;28;20017;-48
2021/12/27 05:41:04;;;;;;;24.63;11.90;;;-1.10;99.90;;;;;;5072954;28;20094;-47
2021/12/27 05:43:30;;;;;;;27.77;12.23;;;-1.10;99.90;;;;;;5073282;28;20366;-48
2021/12/27 05:45:55;;;;;;;25.23;12.07;;;-1.10;99.90;;;;;;5073318;28;20059;-47
2021/12/27 05:48:21;;;;;;;26.23;12.82;;;-1.10;99.90;;;;;;5073386;28;20078;-51
2021/12/27 05:50:46;;;;;;;30.35;12.40;;;-1.10;99.90;;;;;;5072997;28;20024;-47
2021/12/27 05:53:13;;;;;;;25.85;12.95;;;-1.00;99.90;;;;;;5073021;28;20112;-46
2021/12/27 05:55:38;;;;;;;25.48;12.90;;;-1.00;99.90;;;;;;5073530;28;20444;-49
2021/12/27 05:58:04;;;;;;;24.70;12.10;;;-1.00;99.90;;;;;;5073205;28;20028;-49
2021/12/27 06:00:30;;;;;;;27.50;12.35;;;-0.90;99.90;;;;;;5072956;28;20021;-48
2021/12/27 06:02:56;;;;;;;24.73;12.85;;;-0.90;99.90;;;;;;5073259;28;20032;-49
2021/12/27 06:05:23;;;;;;;27.15;12.75;;;-0.90;99.90;;;;;;5073151;28;20032;-46
2021/12/27 06:07:49;;;;;;;27.17;12.85;;;-0.80;99.90;;;;;;5072810;28;20029;-46
2021/12/27 06:10:15;;;;;;;26.67;12.45;;;-0.90;99.90;;;;;;5072641;28;20021;-49
2021/12/27 06:12:41;;;;;;;31.10;12.95;;;-0.80;99.90;;;;;;5072776;28;20028;-47
2021/12/27 06:15:07;;;;;;;27.38;13.02;;;-0.80;99.90;;;;;;5072884;28;20029;-47
2021/12/27 06:17:34;;;;;;;24.27;11.35;;;-0.70;99.90;;;;;;5072829;28;20083;-46
2021/12/27 06:20:02;;;;;;;30.42;12.52;;;-0.70;99.90;;;;;;5072767;28;20433;-47
2021/12/27 06:22:28;;;;;;;27.75;12.68;;;-0.70;99.90;;;;;;5072843;28;20033;-47
2021/12/27 06:24:54;;;;;;;27.38;12.70;;;-0.60;99.90;;;;;;5072552;28;20054;-46
2021/12/27 06:27:20;;;;;;;24.95;12.60;;;-0.60;99.90;;;;;;5072812;28;20059;-49
2021/12/27 06:29:45;;;;;;;29.48;13.98;;;-0.60;99.90;;;;;;5072797;28;20032;-47
2021/12/27 06:32:13;;;;;;;30.02;13.63;;;-0.60;99.90;;;;;;5072561;28;20443;-48
2021/12/27 06:34:40;;;;;;;32.30;12.70;;;-0.60;99.90;;;;;;5072852;28;20029;-46
2021/12/27 06:37:06;;;;;;;27.85;13.35;;;-0.60;99.90;;;;;;5073029;28;20036;-47
2021/12/27 06:39:31;;;;;;;28.83;14.00;;;-0.60;99.90;;;;;;5072519;28;20077;-49
2021/12/27 06:41:57;;;;;;;24.98;13.05;;;-0.60;99.90;;;;;;5072733;28;20112;-48
2021/12/27 06:44:23;;;;;;;30.35;13.10;;;-0.50;99.90;;;;;;5072749;28;20067;-48
2021/12/27 06:46:48;;;;;;;22.85;12.32;;;-0.50;99.90;;;;;;5075501;28;20024;-49
2021/12/27 06:49:14;;;;;;;25.10;13.75;;;-0.50;99.90;;;;;;5058411;28;20020;-47
2021/12/27 06:51:40;;;;;;;29.20;13.88;;;-0.50;99.90;;;;;;5076332;28;20137;-47
2021/12/27 06:54:05;;;;;;;29.50;13.48;;;-0.50;99.90;;;;;;5076430;28;20031;-50
2021/12/27 06:56:31;;;;;;;27.10;13.27;;;-0.50;99.90;;;;;;5076356;28;20035;-48
2021/12/27 06:58:56;;;;;;;28.63;14.40;;;-0.50;99.90;;;;;;5076368;28;20024;-48
2021/12/27 07:01:22;;;;;;;29.95;14.05;;;-0.40;99.90;;;;;;5057946;28;20021;-49
2021/12/27 07:03:48;;;;;;;35.28;14.55;;;-0.40;99.90;;;;;;5076178;28;20028;-47
2021/12/27 07:06:13;;;;;;;31.75;13.32;;;-0.40;99.90;;;;;;5076438;28;20048;-48
2021/12/27 07:08:39;;;;;;;30.52;14.93;;;-0.30;99.90;;;;;;5057688;28;20119;-51
2021/12/27 07:11:04;;;;;;;30.67;14.20;;;-0.30;99.90;;;;;;5075770;28;20025;-48
2021/12/27 07:13:30;;;;;;;31.23;13.70;;;-0.30;99.90;;;;;;5075730;28;20103;-49
2021/12/27 07:15:55;;;;;;;25.88;14.02;;;-0.30;99.90;;;;;;5076256;28;20020;-48
2021/12/27 07:18:23;;;;;;;28.77;14.15;;;-0.30;99.90;;;;;;5075677;28;20085;-46
2021/12/27 07:20:50;;;;;;;33.10;14.85;;;-0.30;99.90;;;;;;5075946;28;20393;-46
2021/12/27 07:23:15;;;;;;;28.58;14.02;;;-0.20;99.90;;;;;;5075915;28;20428;-48
2021/12/27 07:25:41;;;;;;;32.67;14.85;;;-0.20;99.90;;;;;;5057904;28;20032;-47
2021/12/27 07:28:06;;;;;;;29.02;14.10;;;-0.20;99.90;;;;;;5075930;28;20129;-50
2021/12/27 07:30:32;;;;;;;31.10;15.02;;;-0.10;99.90;;;;;;5076382;28;20033;-49
2021/12/27 07:32:58;;;;;;;24.98;14.45;;;-0.10;99.90;;;;;;5075932;28;20017;-47
2021/12/27 07:35:25;;;;;;;34.15;14.52;;;-0.20;99.90;;;;;;5076027;28;20108;-46
2021/12/27 07:37:51;;;;;;;35.80;15.05;;;-0.10;99.90;;;;;;5076739;28;20101;-46
2021/12/27 07:40:17;;;;;;;32.42;14.23;;;-0.20;99.90;;;;;;5075765;28;20039;-45
2021/12/27 07:42:43;;;;;;;29.48;13.75;;;-0.20;99.90;;;;;;5075264;28;20052;-46
2021/12/27 07:45:09;;;;;;;33.90;15.23;;;-0.20;99.90;;;;;;5075618;28;20516;-47
2021/12/27 07:47:35;;;;;;;36.30;16.35;;;-0.10;99.90;;;;;;5075707;28;20029;-45
2021/12/27 07:50:00;;;;;;;30.40;14.88;;;-0.20;99.90;;;;;;5075588;28;20477;-46
2021/12/27 07:52:26;;;;;;;33.80;15.77;;;-0.10;99.90;;;;;;5057348;28;20485;-46
2021/12/27 07:54:51;;;;;;;32.50;14.32;;;-0.10;99.90;;;;;;5075423;28;20126;-47
2021/12/27 07:57:17;;;;;;;33.55;16.52;;;-0.20;99.90;;;;;;5056014;28;20032;-45
2021/12/27 07:59:47;;;;;;;41.88;17.25;;;-0.20;99.90;;;;;;5075494;28;20036;-46
2021/12/27 08:02:16;;;;;;;34.55;15.43;;;-0.10;99.90;;;;;;5075561;28;20419;-46
2021/12/27 08:04:42;;;;;;;40.42;17.17;;;-0.20;99.90;;;;;;5074860;28;20031;-46
2021/12/27 08:07:08;;;;;;;32.00;15.70;;;-0.10;99.90;;;;;;5074893;28;20020;-47
2021/12/27 08:09:33;;;;;;;37.00;17.20;;;-0.10;99.90;;;;;;5075535;28;20017;-45
2021/12/27 08:11:59;;;;;;;35.25;17.23;;;-0.10;99.90;;;;;;5074802;28;20043;-46
2021/12/27 08:14:25;;;;;;;34.90;17.13;;;0.00;99.90;;;;;;5057026;28;20026;-45
2021/12/27 08:16:50;;;;;;;35.95;16.73;;;0.00;99.90;;;;;;5074569;28;20021;-48
2021/12/27 08:19:16;;;;;;;33.20;16.83;;;0.00;99.90;;;;;;5075132;28;20036;-48
2021/12/27 08:21:42;;;;;;;36.17;16.83;;;0.00;99.90;;;;;;5074530;28;20346;-48
2021/12/27 08:24:08;;;;;;;38.92;18.00;;;0.00;99.90;;;;;;5074608;28;20073;-48
2021/12/27 08:26:34;;;;;;;36.95;17.27;;;0.10;99.90;;;;;;5074391;28;20043;-47
2021/12/27 08:29:03;;;;;;;34.13;16.80;;;0.10;99.90;;;;;;5074179;28;20479;-49
2021/12/27 08:31:29;;;;;;;36.25;17.88;;;0.10;99.90;;;;;;5074219;28;20028;-47
2021/12/27 08:33:54;;;;;;;34.08;17.42;;;0.10;99.90;;;;;;5074296;28;20527;-48
2021/12/27 08:36:20;;;;;;;35.67;17.48;;;0.20;99.90;;;;;;5073997;28;20416;-47
2021/12/27 08:38:48;;;;;;;39.22;18.58;;;0.20;99.90;;;;;;5074332;28;20024;-48
2021/12/27 08:41:14;;;;;;;39.03;18.50;;;0.20;99.90;;;;;;5073897;28;20033;-48
2021/12/27 08:43:40;;;;;;;39.08;18.90;;;0.10;99.90;;;;;;5074089;28;20089;-47
2021/12/27 08:46:06;;;;;;;36.60;17.45;;;0.20;99.90;;;;;;5056173;28;20420;-47
2021/12/27 08:48:32;;;;;;;37.83;19.27;;;0.20;99.90;;;;;;5073531;28;20024;-48
2021/12/27 08:50:58;;;;;;;37.83;18.48;;;0.20;99.90;;;;;;5073612;28;20500;-49
2021/12/27 08:53:24;;;;;;;37.28;18.15;;;0.30;99.90;;;;;;5073725;28;20029;-48
2021/12/27 08:55:50;;;;;;;38.95;18.73;;;0.30;99.90;;;;;;5073749;28;20131;-48
2021/12/27 08:58:16;;;;;;;41.33;19.25;;;0.40;99.90;;;;;;5073895;28;20052;-47
2021/12/27 09:00:42;;;;;;;42.17;19.55;;;0.40;99.90;;;;;;5073818;28;20104;-47
2021/12/27 09:03:07;;;;;;;42.75;19.85;;;0.40;99.90;;;;;;5073579;28;20414;-48
2021/12/27 09:05:33;;;;;;;41.80;18.80;;;0.40;99.90;;;;;;5073756;28;20021;-47
2021/12/27 09:07:59;;;;;;;38.72;19.10;;;0.40;99.90;;;;;;5073403;28;20512;-46
2021/12/27 09:10:24;;;;;;;39.15;18.85;;;0.40;99.90;;;;;;5073742;28;20027;-46
2021/12/27 09:12:50;;;;;;;39.30;20.10;;;0.40;99.90;;;;;;5055540;28;20063;-48
2021/12/27 09:15:15;;;;;;;38.33;19.38;;;0.40;99.90;;;;;;5055436;28;20447;-46
2021/12/27 09:17:41;;;;;;;39.88;19.75;;;0.50;99.90;;;;;;5055224;28;20036;-46
2021/12/27 09:20:07;;;;;;;38.47;20.02;;;0.50;99.90;;;;;;5073264;28;20025;-47
2021/12/27 09:22:33;;;;;;;41.75;18.77;;;0.50;99.90;;;;;;5073167;28;20028;-48
2021/12/27 09:24:59;;;;;;;37.97;19.42;;;0.40;99.90;;;;;;5073345;28;20035;-46
2021/12/27 09:27:24;;;;;;;42.53;19.33;;;0.50;99.90;;;;;;5073487;28;20069;-47
2021/12/27 09:29:51;;;;;;;38.00;19.80;;;0.50;99.90;;;;;;5073109;28;20032;-48
2021/12/27 09:32:17;;;;;;;43.63;20.40;;;0.60;99.90;;;;;;5072707;28;20107;-47
2021/12/27 09:34:42;;;;;;;43.38;19.20;;;0.60;99.90;;;;;;5072210;28;20056;-48
2021/12/27 09:37:08;;;;;;;44.00;20.35;;;0.50;99.90;;;;;;5073233;28;20032;-46
2021/12/27 09:39:34;;;;;;;45.03;21.60;;;0.60;99.90;;;;;;5055289;28;20477;-46
2021/12/27 09:42:01;;;;;;;45.25;20.27;;;0.60;99.90;;;;;;5072972;28;20044;-46
2021/12/27 09:44:27;;;;;;;47.83;21.05;;;0.60;99.90;;;;;;5055022;28;20016;-49
2021/12/27 09:46:52;;;;;;;42.00;20.77;;;0.60;99.90;;;;;;5073653;28;20365;-47
2021/12/27 09:49:19;;;;;;;43.50;20.70;;;0.60;99.90;;;;;;5073497;28;20027;-47
2021/12/27 09:51:45;;;;;;;43.50;19.35;;;0.70;99.90;;;;;;5073539;28;20035;-49
2021/12/27 09:54:11;;;;;;;38.45;19.33;;;0.70;99.90;;;;;;5073193;28;20099;-48
2021/12/27 09:56:37;;;;;;;41.33;19.90;;;0.70;99.90;;;;;;5055472;28;20114;-50
2021/12/27 09:59:04;;;;;;;39.53;19.02;;;0.80;99.90;;;;;;5073297;28;20029;-50
2021/12/27 10:01:30;;;;;;;38.10;19.05;;;0.80;99.90;;;;;;5072728;28;20074;-47
2021/12/27 10:03:58;;;;;;;38.75;20.27;;;0.80;99.90;;;;;;5073412;28;20143;-48
2021/12/27 10:06:27;;;;;;;40.08;19.60;;;0.80;99.90;;;;;;5073668;28;20405;-47
2021/12/27 10:08:54;;;;;;;43.33;19.55;;;0.90;99.90;;;;;;5054938;28;20028;-47
2021/12/27 10:11:27;;;;;;;38.67;18.88;;;0.80;99.90;;;;;;5072936;28;20017;-50
2021/12/27 10:14:04;;;;;;;37.80;19.30;;;0.80;99.90;;;;;;5073915;28;20059;-48
2021/12/27 10:16:32;;;;;;;41.90;20.75;;;0.90;99.90;;;;;;5073031;28;20012;-47
2021/12/27 10:19:04;;;;;;;40.40;19.05;;;0.80;99.90;;;;;;5073101;28;20081;-46
2021/12/27 10:21:30;;;;;;;45.08;20.75;;;0.80;99.90;;;;;;5072479;28;20028;-48
2021/12/27 10:24:15;;;;;;;41.03;19.27;;;0.70;99.90;;;;;;5073043;28;20028;-47
2021/12/27 10:26:44;;;;;;;41.25;20.00;;;0.80;99.90;;;;;;5054681;28;20028;-51
2021/12/27 10:29:27;;;;;;;43.88;21.13;;;0.80;99.90;;;;;;5054380;28;20454;-48
2021/12/27 10:32:09;;;;;;;38.35;18.80;;;0.90;99.90;;;;;;5073237;28;20025;-47
2021/12/27 10:34:46;;;;;;;40.38;19.85;;;0.90;99.90;;;;;;5072867;28;20031;-48
2021/12/27 10:37:23;;;;;;;41.67;19.70;;;0.90;99.90;;;;;;5073215;28;20354;-47
2021/12/27 10:39:55;;;;;;;50.63;22.48;;;0.90;99.90;;;;;;5072738;28;20017;-49
2021/12/27 10:42:31;;;;;;;37.92;19.00;;;0.90;99.90;;;;;;5072839;28;20058;-48
2021/12/27 10:45:00;;;;;;;41.13;20.42;;;1.00;99.90;;;;;;5080644;22;20579;-48
2021/12/27 10:47:38;;;;;;;39.58;19.88;;;1.00;99.90;;;;;;5054464;28;20056;-47
2021/12/27 10:50:15;;;;;;;37.63;18.65;;;1.00;99.90;;;;;;5073172;28;20044;-49
2021/12/27 10:52:43;;;;;;;38.33;19.10;;;1.10;99.90;;;;;;5054667;28;20547;-48
2021/12/27 10:55:10;;;;;;;39.45;18.67;;;1.10;99.90;;;;;;5073122;28;20025;-46
2021/12/27 10:57:36;;;;;;;46.75;20.15;;;1.10;99.90;;;;;;5073219;28;20422;-48
2021/12/27 11:00:41;;;;;;;48.38;21.13;;;1.10;99.90;;;;;;5073065;28;20071;-50
2021/12/27 11:03:06;;;;;;;44.17;20.20;;;1.10;99.90;;;;;;5068628;22;20036;-48
2021/12/27 11:05:35;;;;;;;41.13;20.40;;;1.10;99.90;;;;;;5072166;28;20389;-50
2021/12/27 11:08:05;;;;;;;45.75;21.42;;;1.10;99.90;;;;;;5054068;28;20392;-52
2021/12/27 11:10:34;;;;;;;46.63;23.08;;;1.20;99.90;;;;;;5072719;28;20078;-52
2021/12/27 11:13:01;;;;;;;44.92;21.83;;;1.20;99.90;;;;;;5072134;28;20017;-52
2021/12/27 11:15:29;;;;;;;40.95;20.27;;;1.20;99.90;;;;;;5054240;28;20131;-53
2021/12/27 11:17:55;;;;;;;46.33;21.30;;;1.20;99.90;;;;;;5072468;28;20020;-50
2021/12/27 11:20:22;;;;;;;42.15;21.08;;;1.20;99.90;;;;;;5072000;28;20017;-49
2021/12/27 11:22:52;;;;;;;44.78;22.27;;;1.20;99.90;;;;;;5072135;28;20024;-50
2021/12/27 11:25:36;;;;;;;49.13;21.83;;;1.30;99.90;;;;;;5071901;28;20059;-49
2021/12/27 11:28:22;;;;;;;45.45;21.90;;;1.30;99.90;;;;;;5072047;28;20028;-49
2021/12/27 11:30:48;;;;;;;46.40;21.17;;;1.30;99.90;;;;;;5071541;28;20032;-52
2021/12/27 11:33:14;;;;;;;43.75;21.15;;;1.30;99.90;;;;;;5073812;28;20403;-49
2021/12/27 11:36:00;;;;;;;46.63;21.13;;;1.30;99.90;;;;;;5057620;28;20017;-49
2021/12/27 11:38:28;;;;;;;43.95;20.98;;;1.40;99.90;;;;;;5061371;28;20040;-50
2021/12/27 11:40:54;;;;;;;40.25;20.55;;;1.40;99.90;;;;;;5075433;28;20377;-52
2021/12/27 11:43:19;;;;;;;43.72;20.80;;;1.40;99.90;;;;;;5075600;28;20025;-51
2021/12/27 11:45:53;;;;;;;44.88;20.52;;;1.30;99.90;;;;;;5075228;28;20044;-49
2021/12/27 11:48:22;;;;;;;44.30;21.65;;;1.40;99.90;;;;;;5074895;28;20088;-49
2021/12/27 11:51:00;;;;;;;42.72;21.00;;;1.40;99.90;;;;;;5075437;28;20126;-48
2021/12/27 11:53:33;;;;;;;40.53;20.02;;;1.40;99.90;;;;;;5075389;28;20024;-51
2021/12/27 11:56:01;;;;;;;44.65;20.70;;;1.40;99.90;;;;;;5075325;28;20036;-52
2021/12/27 11:58:39;;;;;;;40.60;20.20;;;1.40;99.90;;;;;;5075054;28;20032;-48
2021/12/27 12:01:25;;;;;;;48.13;22.48;;;1.40;99.90;;;;;;5075479;28;20044;-48
2021/12/27 12:03:55;;;;;;;48.08;22.33;;;1.40;99.90;;;;;;5074998;28;20121;-49
2021/12/27 12:06:37;;;;;;;42.70;20.95;;;1.40;99.90;;;;;;5074983;28;20025;-51
2021/12/27 12:09:10;;;;;;;41.50;20.65;;;1.40;99.90;;;;;;5075420;28;20545;-48
2021/12/27 12:11:35;;;;;;;39.47;19.42;;;1.50;99.90;;;;;;5074760;28;20096;-48
2021/12/27 12:14:34;;;;;;;42.47;20.42;;;1.50;99.90;;;;;;5074592;28;20114;-49
2021/12/27 12:17:06;;;;;;;43.60;20.25;;;1.60;99.90;;;;;;5031163;28;20034;-48
2021/12/27 12:19:36;;;;;;;44.08;19.73;;;1.60;99.90;;;;;;5074924;28;20158;-51
2021/12/27 12:22:03;;;;;;;49.60;20.48;;;1.60;99.90;;;;;;5074604;28;20020;-52
2021/12/27 12:24:29;;;;;;;47.10;22.35;;;1.60;99.90;;;;;;5074783;28;20051;-51
2021/12/27 12:27:00;;;;;;;46.03;21.80;;;1.70;99.90;;;;;;5056806;28;20435;-55
2021/12/27 12:29:43;;;;;;;40.00;21.02;;;1.70;99.90;;;;;;5074771;28;20042;-51
2021/12/27 12:32:11;;;;;;;43.13;20.65;;;1.80;99.90;;;;;;5074435;28;20021;-53
2021/12/27 12:34:38;;;;;;;42.10;20.38;;;1.70;99.90;;;;;;5074351;28;20112;-52
2021/12/27 12:37:15;;;;;;;46.65;22.08;;;1.70;99.90;;;;;;5074750;28;20086;-51